createdAt,value
2022-10-17T00:00:37.525Z,3.00
2022-10-17T00:01:41.043Z,2.63
2022-10-17T00:02:43.670Z,3.15
2022-10-17T00:03:53.430Z,2.70
2022-10-17T00:04:55.954Z,2.70
2022-10-17T00:05:59.458Z,3.00
2022-10-17T00:07:02.009Z,2.67
2022-10-17T00:08:06.978Z,2.97
2022-10-17T00:09:16.427Z,2.92
2022-10-17T00:10:20.459Z,2.22
2022-10-17T00:11:24.346Z,2.47
2022-10-17T00:12:27.854Z,2.03
2022-10-17T00:13:37.488Z,2.58
2022-10-17T00:14:41.121Z,2.45
2022-10-17T00:15:44.618Z,2.05
2022-10-17T00:16:48.102Z,2.88
2022-10-17T00:17:50.650Z,2.05
2022-10-17T00:19:00.444Z,3.10
2022-10-17T00:20:09.469Z,2.03
2022-10-17T00:21:17.636Z,1.90
2022-10-17T00:22:20.149Z,2.03
2022-10-17T00:23:27.529Z,1.45
2022-10-17T00:24:38.469Z,2.20
2022-10-17T00:25:42.029Z,2.78
2022-10-17T00:26:44.629Z,1.60
2022-10-17T00:27:48.102Z,2.35
2022-10-17T00:28:51.649Z,1.55
2022-10-17T00:30:01.468Z,1.88
2022-10-17T00:31:05.256Z,2.10
2022-10-17T00:32:08.787Z,2.15
2022-10-17T00:33:11.297Z,2.95
2022-10-17T00:34:14.831Z,2.22
2022-10-17T00:35:23.439Z,1.92
2022-10-17T00:36:27.486Z,1.88
2022-10-17T00:37:31.265Z,1.25
2022-10-17T00:38:36.731Z,2.05
2022-10-17T00:39:39.348Z,2.08
2022-10-17T00:40:49.460Z,2.00
2022-10-17T00:41:52.030Z,3.05
2022-10-17T00:42:55.512Z,1.88
2022-10-17T00:44:05.491Z,1.80
2022-10-17T00:45:14.640Z,2.00
2022-10-17T00:46:17.242Z,1.02
2022-10-17T00:47:21.967Z,2.38
2022-10-17T00:48:25.613Z,2.67
2022-10-17T00:49:44.477Z,2.17
2022-10-17T00:50:56.613Z,2.50
2022-10-17T00:52:00.946Z,1.40
2022-10-17T00:53:06.432Z,2.35
2022-10-17T00:54:10.824Z,1.95
2022-10-17T00:55:22.464Z,1.98
2022-10-17T00:56:25.048Z,1.83
2022-10-17T00:57:29.601Z,2.10
2022-10-17T00:58:32.256Z,2.28
2022-10-17T00:59:42.457Z,1.88
2022-10-17T01:00:45.313Z,2.28
2022-10-17T01:01:58.645Z,2.22
2022-10-17T01:03:01.435Z,2.45
2022-10-17T01:04:05.163Z,1.38
2022-10-17T01:05:14.473Z,2.65
2022-10-17T01:06:18.038Z,2.67
2022-10-17T01:07:20.605Z,1.67
2022-10-17T01:08:24.088Z,1.88
2022-10-17T01:09:28.143Z,2.42
2022-10-17T01:10:39.453Z,3.72
2022-10-17T01:11:46.569Z,1.75
2022-10-17T01:13:02.362Z,1.90
2022-10-17T01:14:07.496Z,3.83
2022-10-17T01:15:21.443Z,2.45
2022-10-17T01:16:35.479Z,3.60
2022-10-17T01:17:43.013Z,2.63
2022-10-17T01:18:53.575Z,2.70
2022-10-17T01:20:14.070Z,2.97
2022-10-17T01:21:26.402Z,3.17
2022-10-17T01:22:41.487Z,2.95
2022-10-17T01:24:08.459Z,3.17
2022-10-17T01:25:25.646Z,4.43
2022-10-17T01:26:32.292Z,2.92
2022-10-17T01:27:44.248Z,3.95
2022-10-17T01:29:00.013Z,2.78
2022-10-17T01:30:22.460Z,3.70
2022-10-17T01:31:28.751Z,3.30
2022-10-17T01:32:37.049Z,2.90
2022-10-17T01:33:47.909Z,2.90
2022-10-17T01:34:55.589Z,2.60
2022-10-17T01:36:07.485Z,2.47
2022-10-17T01:37:18.692Z,2.55
2022-10-17T01:38:24.339Z,2.90
2022-10-17T01:39:32.519Z,2.45
2022-10-17T01:40:44.460Z,2.95
2022-10-17T01:41:52.499Z,2.30
2022-10-17T01:42:57.092Z,2.47
2022-10-17T01:44:04.533Z,2.58
2022-10-17T01:45:10.939Z,3.78
2022-10-17T01:46:23.465Z,2.22
2022-10-17T01:47:29.166Z,1.67
2022-10-17T01:48:35.807Z,2.45
2022-10-17T01:49:59.456Z,2.83
2022-10-17T01:51:04.961Z,2.63
2022-10-17T01:52:15.501Z,2.70
2022-10-17T01:53:21.923Z,1.70
2022-10-17T01:54:25.811Z,2.25
2022-10-17T01:55:32.605Z,2.17
2022-10-17T01:56:42.518Z,2.10
2022-10-17T01:57:48.242Z,2.25
2022-10-17T01:58:52.903Z,2.47
2022-10-17T01:59:57.253Z,1.52
2022-10-17T02:01:01.998Z,2.55
2022-10-17T02:02:13.500Z,2.58
2022-10-17T02:03:19.571Z,1.65
2022-10-17T02:04:23.260Z,1.83
2022-10-17T02:05:27.411Z,1.33
2022-10-17T02:06:30.877Z,2.80
2022-10-17T02:07:39.536Z,1.75
2022-10-17T02:08:43.872Z,2.17
2022-10-17T02:09:46.418Z,2.00
2022-10-17T02:10:56.630Z,2.30
2022-10-17T02:12:10.756Z,2.60
2022-10-17T02:13:28.485Z,1.65
2022-10-17T02:14:39.338Z,1.33
2022-10-17T02:15:48.867Z,2.13
2022-10-17T02:16:55.011Z,2.25
2022-10-17T02:18:03.525Z,2.10
2022-10-17T02:19:25.520Z,1.73
2022-10-17T02:20:33.618Z,1.23
2022-10-17T02:21:39.770Z,1.80
2022-10-17T02:22:45.712Z,1.90
2022-10-17T02:23:52.442Z,1.90
2022-10-17T02:25:08.497Z,1.63
2022-10-17T02:26:12.503Z,1.60
2022-10-17T02:27:17.077Z,1.33
2022-10-17T02:28:27.613Z,1.48
2022-10-17T02:29:32.730Z,1.88
2022-10-17T02:30:37.685Z,1.48
2022-10-17T02:31:43.921Z,2.47
2022-10-17T02:32:51.027Z,1.23
2022-10-17T02:34:03.536Z,1.40
2022-10-17T02:35:09.626Z,1.90
2022-10-17T02:36:15.262Z,1.50
2022-10-17T02:37:20.392Z,1.38
2022-10-17T02:38:24.914Z,1.25
2022-10-17T02:39:36.495Z,2.50
2022-10-17T02:40:41.651Z,1.58
2022-10-17T02:41:45.526Z,1.52
2022-10-17T02:42:49.113Z,1.55
2022-10-17T02:43:52.324Z,1.63
2022-10-17T02:45:03.491Z,1.52
2022-10-17T02:46:14.501Z,1.70
2022-10-17T02:47:20.782Z,1.98
2022-10-17T02:48:26.520Z,1.67
2022-10-17T02:49:51.539Z,1.77
2022-10-17T02:50:59.860Z,1.15
2022-10-17T02:52:12.517Z,0.95
2022-10-17T02:53:16.485Z,2.03
2022-10-17T02:54:22.479Z,0.88
2022-10-17T02:55:28.889Z,1.75
2022-10-17T02:56:41.564Z,1.02
2022-10-17T02:57:46.097Z,1.30
2022-10-17T02:58:51.637Z,1.55
2022-10-17T02:59:54.573Z,1.65
2022-10-17T03:00:58.167Z,1.30
2022-10-17T03:02:10.489Z,1.23
2022-10-17T03:03:33.513Z,2.30
2022-10-17T03:04:36.086Z,1.58
2022-10-17T03:05:39.543Z,1.17
2022-10-17T03:06:43.551Z,1.40
2022-10-17T03:07:53.506Z,1.50
2022-10-17T03:08:56.966Z,1.30
2022-10-17T03:09:59.498Z,1.90
2022-10-17T03:11:03.004Z,1.80
2022-10-17T03:12:06.261Z,1.40
2022-10-17T03:13:16.581Z,2.28
2022-10-17T03:14:19.171Z,2.60
2022-10-17T03:15:22.703Z,1.98
2022-10-17T03:16:25.223Z,1.60
2022-10-17T03:17:28.768Z,1.70
2022-10-17T03:18:37.513Z,1.75
2022-10-17T03:19:40.959Z,1.35
2022-10-17T03:20:43.589Z,1.63
2022-10-17T03:21:48.423Z,1.30
2022-10-17T03:22:50.938Z,1.65
2022-10-17T03:24:00.465Z,1.70
2022-10-17T03:25:03.083Z,2.13
2022-10-17T03:26:07.052Z,1.02
2022-10-17T03:27:09.559Z,1.27
2022-10-17T03:28:13.440Z,1.08
2022-10-17T03:29:22.566Z,1.10
2022-10-17T03:30:26.009Z,1.48
2022-10-17T03:31:28.536Z,1.30
2022-10-17T03:32:32.062Z,1.27
2022-10-17T03:33:34.671Z,1.58
2022-10-17T03:34:44.528Z,1.45
2022-10-17T03:35:47.174Z,2.47
2022-10-17T03:36:52.055Z,2.53
2022-10-17T03:37:56.225Z,1.80
2022-10-17T03:38:59.878Z,1.48
2022-10-17T03:40:09.510Z,1.73
2022-10-17T03:41:19.500Z,1.17
2022-10-17T03:42:22.142Z,1.35
2022-10-17T03:43:26.667Z,1.42
2022-10-17T03:44:29.233Z,1.70
2022-10-17T03:45:32.795Z,3.00
2022-10-17T03:46:41.499Z,0.98
2022-10-17T03:47:44.964Z,1.60
2022-10-17T03:48:47.500Z,1.65
2022-10-17T03:50:11.490Z,1.55
2022-10-17T03:51:20.497Z,1.23
2022-10-17T03:52:25.324Z,1.00
2022-10-17T03:53:27.835Z,1.33
2022-10-17T03:54:31.339Z,0.90
2022-10-17T03:55:33.875Z,1.65
2022-10-17T03:56:43.578Z,2.00
2022-10-17T03:57:46.151Z,1.75
2022-10-17T03:58:50.102Z,1.52
2022-10-17T03:59:52.644Z,1.48
2022-10-17T04:00:56.125Z,1.40
2022-10-17T04:02:05.493Z,1.92
2022-10-17T04:03:11.660Z,1.95
2022-10-17T04:04:22.508Z,2.10
2022-10-17T04:05:26.028Z,2.60
2022-10-17T04:06:28.599Z,1.88
2022-10-17T04:07:39.492Z,1.77
2022-10-17T04:08:42.766Z,3.08
2022-10-17T04:09:46.318Z,3.00
2022-10-17T04:10:48.903Z,1.60
2022-10-17T04:11:52.394Z,2.17
2022-10-17T04:13:01.880Z,1.60
2022-10-17T04:14:05.491Z,1.50
2022-10-17T04:15:08.485Z,1.08
2022-10-17T04:16:14.796Z,1.48
2022-10-17T04:17:17.321Z,1.55
2022-10-17T04:18:27.503Z,1.98
2022-10-17T04:19:31.007Z,1.55
2022-10-17T04:20:35.383Z,1.92
2022-10-17T04:21:38.937Z,1.20
2022-10-17T04:22:43.101Z,2.03
2022-10-17T04:23:53.501Z,1.92
2022-10-17T04:24:56.049Z,1.40
2022-10-17T04:26:00.082Z,1.75
2022-10-17T04:27:02.686Z,1.83
2022-10-17T04:28:06.304Z,1.98
2022-10-17T04:29:15.498Z,1.88
2022-10-17T04:30:25.504Z,1.10
2022-10-17T04:31:28.099Z,1.95
2022-10-17T04:32:32.038Z,2.22
2022-10-17T04:33:34.990Z,1.70
2022-10-17T04:34:38.469Z,2.05
2022-10-17T04:35:47.504Z,2.40
2022-10-17T04:36:51.977Z,1.83
2022-10-17T04:37:55.832Z,2.58
2022-10-17T04:38:59.323Z,1.83
2022-10-17T04:40:01.958Z,1.48
2022-10-17T04:41:12.516Z,1.80
2022-10-17T04:42:15.011Z,2.53
2022-10-17T04:43:25.520Z,2.20
2022-10-17T04:44:30.941Z,2.10
2022-10-17T04:45:34.425Z,1.55
2022-10-17T04:46:37.046Z,2.63
2022-10-17T04:47:47.502Z,1.23
2022-10-17T04:48:50.392Z,1.48
2022-10-17T04:50:14.498Z,3.00
2022-10-17T04:51:20.638Z,1.77
2022-10-17T04:52:33.522Z,2.35
2022-10-17T04:53:38.524Z,2.53
2022-10-17T04:54:42.027Z,1.77
2022-10-17T04:55:44.522Z,1.60
2022-10-17T04:56:48.705Z,2.63
2022-10-17T04:57:57.547Z,2.75
2022-10-17T04:59:01.152Z,2.33
2022-10-17T05:00:04.521Z,2.17
2022-10-17T05:01:08.597Z,2.22
2022-10-17T05:02:12.115Z,1.70
2022-10-17T05:03:21.497Z,1.80
2022-10-17T05:04:25.683Z,1.75
2022-10-17T05:05:28.279Z,1.50
2022-10-17T05:06:33.112Z,2.03
2022-10-17T05:07:35.880Z,1.52
2022-10-17T05:08:47.508Z,1.77
2022-10-17T05:09:56.704Z,1.90
2022-10-17T05:12:10.308Z,1.48
2022-10-17T05:13:14.407Z,2.47
2022-10-17T05:14:16.980Z,1.80
2022-10-17T05:15:26.516Z,1.83
2022-10-17T05:16:29.809Z,2.13
2022-10-17T05:17:33.298Z,1.75
2022-10-17T05:18:36.816Z,1.77
2022-10-17T05:19:39.357Z,1.63
2022-10-17T05:20:49.567Z,1.52
2022-10-17T05:21:52.108Z,1.45
2022-10-17T05:22:55.775Z,1.88
2022-10-17T05:23:59.716Z,1.45
2022-10-17T05:25:03.166Z,1.90
2022-10-17T05:26:12.576Z,1.92
2022-10-17T05:27:16.041Z,2.30
2022-10-17T05:28:18.607Z,2.67
2022-10-17T05:29:22.056Z,1.73
2022-10-17T05:30:24.887Z,1.98
2022-10-17T05:31:34.528Z,2.00
2022-10-17T05:32:37.082Z,1.65
2022-10-17T05:33:40.859Z,1.80
2022-10-17T05:34:43.617Z,2.05
2022-10-17T05:35:53.600Z,2.45
2022-10-17T05:36:56.418Z,1.88
2022-10-17T05:38:01.197Z,1.88
2022-10-17T05:39:05.177Z,2.13
2022-10-17T05:40:15.525Z,1.75
2022-10-17T05:41:19.470Z,2.28
2022-10-17T05:42:22.341Z,2.45
2022-10-17T05:43:25.996Z,1.45
2022-10-17T05:44:28.777Z,1.95
2022-10-17T05:45:38.516Z,1.67
2022-10-17T05:46:41.092Z,1.48
2022-10-17T05:47:44.577Z,2.42
2022-10-17T05:48:47.106Z,1.88
2022-10-17T05:50:10.523Z,2.20
2022-10-17T05:51:19.538Z,2.22
2022-10-17T05:52:23.028Z,1.77
2022-10-17T05:53:25.576Z,1.95
2022-10-17T05:54:30.466Z,2.28
2022-10-17T05:55:39.567Z,2.97
2022-10-17T05:56:43.158Z,1.95
2022-10-17T05:57:45.709Z,2.95
2022-10-17T05:58:51.500Z,3.35
2022-10-17T05:59:55.908Z,1.70
2022-10-17T06:01:08.230Z,1.60
2022-10-17T06:02:14.637Z,1.85
2022-10-17T06:03:17.228Z,2.55
2022-10-17T06:04:20.759Z,1.92
2022-10-17T06:05:29.559Z,2.03
2022-10-17T06:06:39.537Z,2.10
2022-10-17T06:07:42.107Z,1.40
2022-10-17T06:08:46.029Z,2.60
2022-10-17T06:09:49.979Z,1.33
2022-10-17T06:10:59.613Z,1.60
2022-10-17T06:12:02.350Z,2.60
2022-10-17T06:13:05.858Z,1.63
2022-10-17T06:14:08.718Z,2.25
2022-10-17T06:15:12.416Z,2.60
2022-10-17T06:16:22.088Z,2.30
2022-10-17T06:17:25.656Z,2.33
2022-10-17T06:18:28.194Z,2.88
2022-10-17T06:19:31.668Z,1.75
2022-10-17T06:20:34.216Z,2.22
2022-10-17T06:21:45.546Z,1.73
2022-10-17T06:22:55.556Z,2.60
2022-10-17T06:23:59.039Z,2.80
2022-10-17T06:25:02.895Z,1.92
2022-10-17T06:26:07.673Z,1.98
2022-10-17T06:27:16.528Z,2.25
2022-10-17T06:28:20.079Z,2.50
2022-10-17T06:29:29.561Z,3.25
2022-10-17T06:30:33.019Z,3.20
2022-10-17T06:31:35.633Z,2.70
2022-10-17T06:32:39.109Z,2.67
2022-10-17T06:33:48.537Z,2.20
2022-10-17T06:34:52.047Z,2.95
2022-10-17T06:35:55.018Z,2.70
2022-10-17T06:36:58.474Z,2.75
2022-10-17T06:38:07.588Z,2.78
2022-10-17T06:39:17.527Z,2.28
2022-10-17T06:40:21.378Z,1.90
2022-10-17T06:41:25.379Z,3.05
2022-10-17T06:42:27.948Z,1.48
2022-10-17T06:43:37.580Z,1.83
2022-10-17T06:44:41.300Z,1.95
2022-10-17T06:45:43.921Z,1.58
2022-10-17T06:46:47.406Z,2.17
2022-10-17T06:47:50.857Z,2.17
2022-10-17T06:48:59.560Z,2.67
2022-10-17T06:50:23.540Z,2.10
2022-10-17T06:51:26.161Z,2.92
2022-10-17T06:52:29.676Z,3.85
2022-10-17T06:53:39.936Z,2.97
2022-10-17T06:54:43.547Z,3.03
2022-10-17T06:55:52.278Z,2.80
2022-10-17T06:56:56.210Z,2.72
2022-10-17T06:57:58.744Z,1.95
2022-10-17T06:59:08.537Z,2.05
2022-10-17T07:00:11.960Z,3.38
2022-10-17T07:01:22.565Z,2.88
2022-10-17T07:02:26.078Z,3.22
2022-10-17T07:03:28.682Z,2.50
2022-10-17T07:04:32.272Z,1.90
2022-10-17T07:05:35.736Z,2.67
2022-10-17T07:06:45.633Z,2.67
2022-10-17T07:07:51.725Z,2.88
2022-10-17T07:08:55.761Z,2.55
2022-10-17T07:09:59.330Z,2.72
2022-10-17T07:11:18.567Z,3.08
2022-10-17T07:12:28.542Z,3.22
2022-10-17T07:13:39.297Z,2.88
2022-10-17T07:14:42.963Z,3.28
2022-10-17T07:15:46.634Z,2.80
2022-10-17T07:16:56.561Z,2.72
2022-10-17T07:18:00.025Z,3.40
2022-10-17T07:19:02.584Z,3.10
2022-10-17T07:20:06.292Z,2.30
2022-10-17T07:21:09.299Z,2.50
2022-10-17T07:22:19.569Z,2.78
2022-10-17T07:23:28.616Z,2.83
2022-10-17T07:24:32.159Z,4.30
2022-10-17T07:25:39.282Z,3.17
2022-10-17T07:26:45.140Z,3.25
2022-10-17T07:27:49.267Z,3.83
2022-10-17T07:29:00.592Z,3.38
2022-10-17T07:30:03.237Z,2.45
2022-10-17T07:31:07.265Z,2.03
2022-10-17T07:32:09.897Z,1.40
2022-10-17T07:33:19.570Z,2.55
2022-10-17T07:34:33.617Z,1.80
2022-10-17T07:35:36.164Z,2.42
2022-10-17T07:36:39.763Z,2.97
2022-10-17T07:37:42.558Z,1.97
2022-10-17T07:38:46.050Z,2.33
2022-10-17T07:39:55.586Z,2.78
2022-10-17T07:40:58.816Z,2.72
2022-10-17T07:42:03.804Z,2.45
2022-10-17T07:43:06.353Z,2.43
2022-10-17T07:44:16.558Z,2.70
2022-10-17T07:45:25.565Z,1.80
2022-10-17T07:46:29.061Z,2.63
2022-10-17T07:47:33.359Z,2.47
2022-10-17T07:48:37.018Z,3.23
2022-10-17T07:49:49.621Z,2.58
2022-10-17T07:51:13.546Z,2.20
2022-10-17T07:52:17.584Z,1.30
2022-10-17T07:53:21.315Z,2.13
2022-10-17T07:54:24.777Z,2.20
2022-10-17T07:55:33.554Z,1.70
2022-10-17T07:56:37.055Z,2.10
2022-10-17T07:57:42.132Z,1.47
2022-10-17T07:58:45.638Z,1.13
2022-10-17T07:59:48.255Z,1.70
2022-10-17T08:00:58.701Z,2.10
2022-10-17T08:02:07.636Z,2.87
2022-10-17T08:03:12.379Z,1.67
2022-10-17T08:04:17.094Z,1.57
2022-10-17T08:05:26.602Z,2.10
2022-10-17T08:06:30.106Z,1.73
2022-10-17T08:07:32.822Z,1.73
2022-10-17T08:08:36.369Z,1.77
2022-10-17T08:09:46.130Z,2.20
2022-10-17T08:10:56.614Z,2.10
2022-10-17T08:12:00.109Z,1.43
2022-10-17T08:13:05.410Z,1.50
2022-10-17T08:14:08.020Z,2.00
2022-10-17T08:15:12.172Z,2.03
2022-10-17T08:16:22.621Z,1.33
2022-10-17T08:17:31.568Z,2.07
2022-10-17T08:18:35.322Z,1.00
2022-10-17T08:19:39.891Z,1.73
2022-10-17T08:20:43.621Z,1.73
2022-10-17T08:21:53.574Z,2.00
2022-10-17T08:22:57.323Z,2.33
2022-10-17T08:24:09.559Z,2.13
2022-10-17T08:25:13.012Z,2.10
2022-10-17T08:26:17.363Z,2.07
2022-10-17T08:27:31.602Z,2.40
2022-10-17T08:28:37.863Z,2.13
2022-10-17T08:29:47.557Z,2.63
2022-10-17T08:30:51.044Z,1.57
2022-10-17T08:31:58.579Z,1.17
2022-10-17T08:33:11.587Z,1.77
2022-10-17T08:34:14.184Z,1.67
2022-10-17T08:35:17.825Z,1.93
2022-10-17T08:36:22.311Z,1.53
2022-10-17T08:37:32.058Z,1.13
2022-10-17T08:38:37.575Z,1.63
2022-10-17T08:39:47.587Z,1.60
2022-10-17T08:40:51.371Z,1.13
2022-10-17T08:42:02.406Z,1.63
2022-10-17T08:43:20.562Z,1.90
2022-10-17T08:44:37.584Z,2.00
2022-10-17T08:45:44.505Z,1.07
2022-10-17T08:46:49.951Z,1.40
2022-10-17T08:47:53.736Z,1.47
2022-10-17T08:48:58.650Z,0.90
2022-10-17T08:50:09.632Z,0.87
2022-10-17T08:51:28.789Z,0.93
2022-10-17T08:52:34.223Z,0.80
2022-10-17T08:53:41.828Z,1.13
2022-10-17T08:54:47.143Z,0.83
2022-10-17T08:55:57.601Z,0.93
2022-10-17T08:57:01.110Z,0.60
2022-10-17T08:58:03.677Z,1.60
2022-10-17T08:59:13.628Z,1.73
2022-10-17T09:00:20.096Z,1.40
2022-10-17T09:01:34.737Z,0.80
2022-10-17T09:02:45.290Z,0.63
2022-10-17T09:03:53.947Z,1.07
2022-10-17T09:05:11.602Z,0.40
2022-10-17T09:06:19.480Z,1.07
2022-10-17T09:07:27.476Z,0.90
2022-10-17T09:08:40.168Z,1.03
2022-10-17T09:09:47.966Z,0.77
2022-10-17T09:11:02.595Z,0.80
2022-10-17T09:12:13.717Z,1.10
2022-10-17T09:13:20.552Z,0.90
2022-10-17T09:14:38.898Z,1.27
2022-10-17T09:15:55.590Z,1.33
2022-10-17T09:17:15.599Z,1.00
2022-10-17T09:18:27.639Z,0.50
2022-10-17T09:19:38.910Z,1.23
2022-10-17T09:20:45.170Z,1.27
2022-10-17T09:21:56.607Z,1.33
2022-10-17T09:23:01.503Z,1.07
2022-10-17T09:24:09.607Z,0.50
2022-10-17T09:25:20.690Z,0.70
2022-10-17T09:26:23.505Z,0.73
2022-10-17T09:27:36.588Z,0.67
2022-10-17T09:28:41.106Z,0.73
2022-10-17T09:29:45.460Z,0.63
2022-10-17T09:30:53.749Z,0.63
2022-10-17T09:32:10.643Z,1.00
2022-10-17T09:33:28.128Z,0.90
2022-10-17T09:34:38.573Z,0.80
2022-10-17T09:35:42.137Z,0.37
2022-10-17T09:36:45.587Z,0.57
2022-10-17T09:37:56.575Z,1.43
2022-10-17T09:39:08.585Z,0.50
2022-10-17T09:40:17.395Z,0.83
2022-10-17T09:42:46.801Z,0.50
2022-10-17T09:43:50.716Z,0.90
2022-10-17T09:45:03.617Z,1.13
2022-10-17T09:46:10.451Z,0.57
2022-10-17T09:47:20.493Z,0.90
2022-10-17T09:48:27.215Z,0.90
2022-10-17T09:49:39.567Z,0.90
2022-10-17T09:51:14.989Z,1.20
2022-10-17T09:52:29.492Z,1.13
2022-10-17T09:53:34.520Z,0.60
2022-10-17T09:54:52.569Z,1.07
2022-10-17T09:55:58.012Z,0.87
2022-10-17T09:57:02.027Z,0.67
2022-10-17T09:58:06.495Z,1.90
2022-10-17T09:59:13.785Z,1.30
2022-10-17T10:00:32.938Z,0.57
2022-10-17T10:01:37.794Z,0.40
2022-10-17T10:02:40.938Z,1.07
2022-10-17T10:03:44.416Z,1.00
2022-10-17T10:05:09.037Z,1.33
2022-10-17T10:06:22.607Z,1.20
2022-10-17T10:07:29.292Z,0.40
2022-10-17T10:08:33.946Z,0.87
2022-10-17T10:09:39.491Z,1.30
2022-10-17T10:10:50.625Z,0.80
2022-10-17T10:11:56.068Z,0.83
2022-10-17T10:13:05.617Z,0.93
2022-10-17T10:14:13.313Z,0.70
2022-10-17T10:15:32.368Z,0.87
2022-10-17T10:16:49.615Z,0.60
2022-10-17T10:17:53.477Z,0.80
2022-10-17T10:18:56.927Z,0.70
2022-10-17T10:19:59.486Z,0.80
2022-10-17T10:21:17.595Z,1.20
2022-10-17T10:22:22.049Z,2.10
2022-10-17T10:23:25.514Z,0.53
2022-10-17T10:24:31.082Z,1.17
2022-10-17T10:25:34.204Z,0.40
2022-10-17T10:26:46.607Z,0.83
2022-10-17T10:27:50.415Z,0.57
2022-10-17T10:28:56.237Z,0.90
2022-10-17T10:29:58.871Z,1.17
2022-10-17T10:31:04.671Z,0.70
2022-10-17T10:32:18.592Z,1.10
2022-10-17T10:33:23.629Z,0.80
2022-10-17T10:34:28.019Z,0.90
2022-10-17T10:35:33.049Z,0.77
2022-10-17T10:37:11.384Z,1.10
2022-10-17T10:38:18.445Z,0.80
2022-10-17T10:39:34.616Z,0.93
2022-10-17T10:40:40.178Z,0.73
2022-10-17T10:41:47.356Z,1.10
2022-10-17T10:42:52.019Z,0.93
2022-10-17T10:44:03.595Z,0.80
2022-10-17T10:45:29.269Z,1.10
2022-10-17T10:46:40.428Z,0.80
2022-10-17T10:47:51.464Z,1.27
2022-10-17T10:49:05.649Z,0.70
2022-10-17T10:50:10.420Z,1.20
2022-10-17T10:51:23.381Z,1.27
2022-10-17T10:52:31.182Z,0.70
2022-10-17T10:53:38.955Z,0.90
2022-10-17T10:54:51.601Z,0.90
2022-10-17T10:56:03.649Z,1.07
2022-10-17T10:57:09.596Z,0.80
2022-10-17T10:58:21.082Z,1.10
2022-10-17T10:59:26.657Z,0.83
2022-10-17T11:00:29.468Z,1.03
2022-10-17T11:01:42.656Z,0.70
2022-10-17T11:02:53.008Z,0.97
2022-10-17T11:04:08.188Z,1.87
2022-10-17T11:05:14.993Z,0.60
2022-10-17T11:06:20.452Z,1.17
2022-10-17T11:07:32.070Z,1.10
2022-10-17T11:08:40.035Z,1.07
2022-10-17T11:09:48.194Z,0.80
2022-10-17T11:10:58.325Z,0.97
2022-10-17T11:12:03.827Z,1.37
2022-10-17T11:13:26.606Z,0.70
2022-10-17T11:14:35.291Z,1.50
2022-10-17T11:15:42.177Z,1.53
2022-10-17T11:16:48.071Z,1.10
2022-10-17T11:18:00.666Z,1.13
2022-10-17T11:19:08.597Z,1.00
2022-10-17T11:20:15.282Z,0.70
2022-10-17T11:21:34.845Z,0.97
2022-10-17T11:22:51.606Z,0.87
2022-10-17T11:24:06.925Z,1.37
2022-10-17T11:25:25.628Z,1.60
2022-10-17T11:26:29.692Z,1.50
2022-10-17T11:27:33.530Z,1.00
2022-10-17T11:28:37.489Z,1.00
2022-10-17T11:29:47.626Z,1.07
2022-10-17T11:30:53.543Z,1.03
2022-10-17T11:31:57.906Z,0.77
2022-10-17T11:33:02.616Z,0.90
2022-10-17T11:34:09.885Z,1.20
2022-10-17T11:35:24.615Z,1.13
2022-10-17T11:36:30.187Z,1.13
2022-10-17T11:37:34.619Z,1.20
2022-10-17T11:38:43.944Z,0.85
2022-10-17T11:39:55.634Z,1.50
2022-10-17T11:41:00.847Z,1.40
2022-10-17T11:42:07.899Z,1.20
2022-10-17T11:43:15.758Z,1.20
2022-10-17T11:44:21.516Z,1.63
2022-10-17T11:45:33.626Z,1.30
2022-10-17T11:46:44.628Z,1.07
2022-10-17T11:47:49.497Z,1.37
2022-10-17T11:49:06.025Z,1.37
2022-10-17T11:52:01.588Z,1.37
2022-10-17T11:53:14.890Z,1.33
2022-10-17T11:54:20.709Z,0.90
2022-10-17T11:55:31.673Z,1.57
2022-10-17T11:56:42.738Z,1.27
2022-10-17T11:57:50.380Z,1.40
2022-10-17T11:58:56.851Z,1.10
2022-10-17T12:00:03.513Z,1.40
2022-10-17T12:01:18.690Z,1.73
2022-10-17T12:02:26.855Z,1.97
2022-10-17T12:03:35.520Z,1.20
2022-10-17T12:04:44.802Z,1.33
2022-10-17T12:05:58.036Z,1.80
2022-10-17T12:07:13.660Z,1.30
2022-10-17T12:08:20.526Z,1.40
2022-10-17T12:09:28.058Z,1.70
2022-10-17T12:10:52.638Z,1.20
2022-10-17T12:11:57.208Z,1.43
2022-10-17T12:13:22.662Z,1.47
2022-10-17T12:14:48.648Z,1.57
2022-10-17T12:15:51.200Z,2.07
2022-10-17T12:16:54.786Z,2.00
2022-10-17T12:17:59.222Z,1.23
2022-10-17T12:19:21.101Z,1.57
2022-10-17T12:20:48.626Z,1.50
2022-10-17T12:21:59.645Z,1.93
2022-10-17T12:23:05.731Z,1.77
2022-10-17T12:24:24.956Z,2.03
2022-10-17T12:25:36.721Z,1.83
2022-10-17T12:26:39.295Z,1.43
2022-10-17T12:27:45.976Z,2.13
2022-10-17T12:28:48.994Z,2.07
2022-10-17T12:29:52.878Z,1.30
2022-10-17T12:31:04.667Z,1.50
2022-10-17T12:32:13.682Z,2.07
2022-10-17T12:33:22.579Z,1.57
2022-10-17T12:34:25.336Z,1.07
2022-10-17T12:35:36.680Z,1.70
2022-10-17T12:36:39.545Z,1.73
2022-10-17T12:38:04.198Z,2.23
2022-10-17T12:39:26.281Z,2.10
2022-10-17T12:40:56.734Z,2.40
2022-10-17T12:42:00.225Z,2.07
2022-10-17T12:43:03.296Z,1.70
2022-10-17T12:44:28.762Z,2.00
2022-10-17T12:45:52.824Z,2.53
2022-10-17T12:47:06.722Z,1.87
2022-10-17T12:48:10.359Z,2.30
2022-10-17T12:49:38.243Z,1.80
2022-10-17T12:53:04.743Z,2.27
2022-10-17T12:54:13.152Z,1.73
2022-10-17T12:55:18.811Z,1.87
2022-10-17T12:56:22.368Z,2.53
2022-10-17T12:57:29.445Z,1.90
2022-10-17T12:58:39.823Z,1.93
2022-10-17T12:59:45.246Z,2.57
2022-10-17T13:01:11.806Z,2.20
2022-10-17T13:02:19.768Z,1.90
2022-10-17T13:03:25.530Z,1.70
2022-10-17T13:04:36.653Z,2.23
2022-10-17T13:05:41.912Z,1.67
2022-10-17T13:06:46.635Z,1.60
2022-10-17T13:07:51.191Z,2.17
2022-10-17T13:09:02.462Z,2.27
2022-10-17T13:10:15.427Z,1.87
2022-10-17T13:11:24.308Z,2.40
2022-10-17T13:12:28.621Z,1.93
2022-10-17T13:13:39.272Z,2.17
2022-10-17T13:14:49.669Z,2.10
2022-10-17T13:15:54.062Z,1.90
2022-10-17T13:17:05.314Z,2.07
2022-10-17T13:18:19.861Z,1.90
2022-10-17T13:19:23.639Z,2.30
2022-10-17T13:20:31.299Z,2.37
2022-10-17T13:21:34.488Z,2.63
2022-10-17T13:22:52.643Z,3.00
2022-10-17T13:23:56.462Z,2.80
2022-10-17T13:25:16.457Z,2.43
2022-10-17T13:26:21.315Z,2.60
2022-10-17T13:27:30.232Z,2.20
2022-10-17T13:28:40.697Z,2.70
2022-10-17T13:29:45.513Z,2.07
2022-10-17T13:30:49.872Z,2.63
2022-10-17T13:31:54.263Z,2.20
2022-10-17T13:32:57.986Z,1.93
2022-10-17T13:34:10.637Z,2.60
2022-10-17T13:35:14.132Z,2.67
2022-10-17T13:36:19.623Z,2.20
2022-10-17T13:37:22.163Z,2.00
2022-10-17T13:38:36.656Z,2.87
2022-10-17T13:39:55.223Z,3.43
2022-10-17T13:41:10.896Z,2.17
2022-10-17T13:42:27.561Z,3.00
2022-10-17T13:43:38.657Z,2.97
2022-10-17T13:44:43.515Z,3.00
2022-10-17T13:45:54.663Z,5.57
2022-10-17T13:46:58.124Z,2.87
2022-10-17T13:48:01.514Z,2.73
2022-10-17T13:49:21.361Z,2.13
2022-10-17T13:50:43.575Z,2.70
2022-10-17T13:51:55.784Z,2.87
2022-10-17T13:53:19.738Z,2.73
2022-10-17T13:54:43.665Z,3.33
2022-10-17T13:56:09.413Z,3.13
2022-10-17T13:57:20.465Z,3.23
2022-10-17T13:58:23.139Z,2.83
2022-10-17T13:59:27.853Z,3.37
2022-10-17T14:00:36.732Z,2.87
2022-10-17T14:01:40.684Z,3.33
2022-10-17T14:02:44.331Z,3.07
2022-10-17T14:03:48.894Z,3.37
2022-10-17T14:05:19.242Z,3.70
2022-10-17T14:06:26.254Z,3.17
2022-10-17T14:07:41.739Z,2.90
2022-10-17T14:08:56.765Z,4.60
2022-10-17T14:09:59.289Z,2.77
2022-10-17T14:11:09.678Z,3.47
2022-10-17T14:12:13.772Z,3.03
2022-10-17T14:13:20.457Z,3.73
2022-10-17T14:14:25.779Z,2.77
2022-10-17T14:15:29.547Z,2.67
2022-10-17T14:16:46.724Z,4.00
2022-10-17T14:17:56.155Z,2.80
2022-10-17T14:18:59.717Z,2.50
2022-10-17T14:20:26.545Z,2.90
2022-10-17T14:21:44.179Z,3.63
2022-10-17T14:22:58.993Z,2.90
2022-10-17T14:24:14.707Z,2.23
2022-10-17T14:25:30.447Z,3.00
2022-10-17T14:26:43.986Z,2.73
2022-10-17T14:27:55.617Z,3.13
2022-10-17T14:29:06.823Z,4.03
2022-10-17T14:30:55.296Z,2.87
2022-10-17T14:32:10.736Z,3.30
2022-10-17T14:33:15.221Z,2.73
2022-10-17T14:34:22.686Z,4.03
2022-10-17T14:35:42.382Z,2.47
2022-10-17T14:36:52.810Z,3.00
2022-10-17T14:38:00.032Z,2.53
2022-10-17T14:39:03.524Z,2.90
2022-10-17T14:40:08.000Z,2.70
2022-10-17T14:41:41.379Z,2.70
2022-10-17T14:42:47.733Z,2.93
2022-10-17T14:43:53.851Z,2.97
2022-10-17T14:44:59.491Z,2.93
2022-10-17T14:46:02.110Z,3.00
2022-10-17T14:47:30.910Z,3.33
2022-10-17T14:48:38.736Z,2.53
2022-10-17T14:49:42.733Z,2.83
2022-10-17T14:51:06.979Z,3.27
2022-10-17T14:52:36.161Z,3.17
2022-10-17T14:53:46.681Z,3.27
2022-10-17T14:54:50.901Z,3.30
2022-10-17T14:56:03.701Z,3.13
2022-10-17T14:57:11.350Z,2.53
2022-10-17T14:58:18.458Z,2.77
2022-10-17T14:59:51.416Z,3.10
2022-10-17T15:00:53.698Z,2.50
2022-10-17T15:02:02.689Z,2.60
2022-10-17T15:03:06.146Z,2.90
2022-10-17T15:04:10.843Z,3.40
2022-10-17T15:05:14.506Z,2.80
2022-10-17T15:06:19.310Z,2.80
2022-10-17T15:07:29.683Z,2.17
2022-10-17T15:08:34.533Z,2.70
2022-10-17T15:09:37.080Z,3.17
2022-10-17T15:10:41.989Z,2.60
2022-10-17T15:11:50.842Z,2.67